createdAt,value
2022-08-26T00:01:44.118Z,97825.47
2022-08-26T00:04:12.200Z,97829.22
2022-08-26T00:06:42.551Z,97826.72
2022-08-26T00:09:13.307Z,97825.84
2022-08-26T00:11:44.164Z,97827.09
2022-08-26T00:14:13.511Z,97833.66
2022-08-26T00:16:40.898Z,97831.69
2022-08-26T00:19:08.805Z,97826.84
2022-08-26T00:21:37.592Z,97828.00
2022-08-26T00:24:05.824Z,97818.38
2022-08-26T00:26:34.980Z,97815.56
2022-08-26T00:29:02.200Z,97826.47
2022-08-26T00:31:31.145Z,97816.59
2022-08-26T00:33:58.945Z,97819.25
2022-08-26T00:36:29.836Z,97822.59
2022-08-26T00:38:58.209Z,97817.66
2022-08-26T00:41:25.177Z,97811.13
2022-08-26T00:43:53.261Z,97803.69
2022-08-26T00:46:24.101Z,97809.00
2022-08-26T00:48:53.797Z,97810.72
2022-08-26T00:51:24.587Z,97804.00
2022-08-26T00:54:06.268Z,97801.50
2022-08-26T00:56:53.070Z,97805.66
2022-08-26T00:59:20.866Z,97806.13
2022-08-26T01:01:48.490Z,97808.25
2022-08-26T01:04:19.046Z,97811.97
2022-08-26T01:06:46.966Z,97815.38
2022-08-26T01:09:14.704Z,97807.34
2022-08-26T01:11:41.768Z,97809.22
2022-08-26T01:14:09.047Z,97806.69
2022-08-26T01:16:36.677Z,97802.28
2022-08-26T01:19:21.080Z,97805.69
2022-08-26T01:21:52.607Z,97801.75
2022-08-26T01:24:20.188Z,97802.34
2022-08-26T01:26:47.182Z,97805.41
2022-08-26T01:29:18.006Z,97806.66
2022-08-26T01:31:53.962Z,97800.72
2022-08-26T01:34:25.434Z,97812.38
2022-08-26T01:37:08.476Z,97800.44
2022-08-26T01:39:41.038Z,97806.53
2022-08-26T01:42:12.093Z,97803.78
2022-08-26T01:45:13.413Z,97809.00
2022-08-26T01:47:41.495Z,97806.22
2022-08-26T01:50:12.406Z,97805.41
2022-08-26T01:52:44.041Z,97802.91
2022-08-26T01:55:14.912Z,97805.03
2022-08-26T01:57:57.658Z,97802.69
2022-08-26T02:00:25.267Z,97812.25
2022-08-26T02:03:17.263Z,97802.22
2022-08-26T02:06:05.326Z,97800.56
2022-08-26T02:08:45.486Z,97802.16
2022-08-26T02:11:13.388Z,97798.66
2022-08-26T02:13:45.022Z,97801.72
2022-08-26T02:16:12.382Z,97802.97
2022-08-26T02:18:41.377Z,97802.03
2022-08-26T02:21:10.948Z,97804.06
2022-08-26T02:23:38.285Z,97798.13
2022-08-26T02:26:12.770Z,97793.56
2022-08-26T02:28:52.681Z,97797.91
2022-08-26T02:31:20.099Z,97798.28
2022-08-26T02:33:47.812Z,97789.47
2022-08-26T02:36:22.715Z,97786.72
2022-08-26T02:38:50.108Z,97787.59
2022-08-26T02:41:19.153Z,97776.59
2022-08-26T02:43:46.100Z,97777.22
2022-08-26T02:46:13.205Z,97776.22
2022-08-26T02:48:48.603Z,97783.47
2022-08-26T02:51:15.533Z,97778.31
2022-08-26T02:53:42.749Z,97779.09
2022-08-26T02:56:09.881Z,97775.81
2022-08-26T02:58:36.978Z,97776.19
2022-08-26T03:01:04.986Z,97779.84
2022-08-26T03:03:33.212Z,97772.53
2022-08-26T03:06:00.540Z,97770.97
2022-08-26T03:08:27.516Z,97771.25
2022-08-26T03:10:54.686Z,97770.19
2022-08-26T03:13:21.579Z,97771.41
2022-08-26T03:15:48.816Z,97766.59
2022-08-26T03:18:16.358Z,97768.31
2022-08-26T03:20:44.007Z,97763.06
2022-08-26T03:23:11.612Z,97770.50
2022-08-26T03:25:38.831Z,97759.69
2022-08-26T03:28:05.858Z,97772.19
2022-08-26T03:30:44.773Z,97772.44
2022-08-26T03:33:13.303Z,97771.81
2022-08-26T03:35:42.989Z,97769.03
2022-08-26T03:38:10.103Z,97770.13
2022-08-26T03:40:37.748Z,97767.06
2022-08-26T03:43:05.707Z,97769.72
2022-08-26T03:45:32.818Z,97766.31
2022-08-26T03:48:00.324Z,97764.66
2022-08-26T03:50:28.974Z,97761.47
2022-08-26T03:52:56.209Z,97759.87
2022-08-26T03:55:31.209Z,97761.44
2022-08-26T03:57:58.650Z,97761.00
2022-08-26T04:00:25.711Z,97757.72
2022-08-26T04:02:53.372Z,97757.63
2022-08-26T04:05:21.922Z,97756.50
2022-08-26T04:07:49.877Z,97762.00
2022-08-26T04:10:20.365Z,97755.22
2022-08-26T04:12:47.755Z,97753.50
2022-08-26T04:15:15.996Z,97757.88
2022-08-26T04:17:44.707Z,97754.22
2022-08-26T04:20:14.138Z,97759.47
2022-08-26T04:22:43.386Z,97757.34
2022-08-26T04:25:11.369Z,97762.28
2022-08-26T04:27:38.731Z,97764.66
2022-08-26T04:30:09.101Z,97766.22
2022-08-26T04:32:36.647Z,97764.28
2022-08-26T04:35:04.669Z,97773.78
2022-08-26T04:37:32.107Z,97771.88
2022-08-26T04:39:59.922Z,97772.44
2022-08-26T04:42:27.218Z,97774.47
2022-08-26T04:44:55.484Z,97769.28
2022-08-26T04:47:22.466Z,97767.22
2022-08-26T04:49:49.375Z,97765.09
2022-08-26T04:52:17.345Z,97762.38
2022-08-26T04:54:44.253Z,97770.03
2022-08-26T04:57:11.212Z,97759.84
2022-08-26T04:59:39.428Z,97767.22
2022-08-26T05:02:07.345Z,97760.41
2022-08-26T05:04:34.726Z,97766.63
2022-08-26T05:07:02.737Z,97770.19
2022-08-26T05:09:30.493Z,97771.25
2022-08-26T05:11:57.537Z,97774.16
2022-08-26T05:14:24.454Z,97780.22
2022-08-26T05:16:51.663Z,97779.50
2022-08-26T05:19:19.469Z,97786.59
2022-08-26T05:21:47.939Z,97786.91
2022-08-26T05:24:15.404Z,97779.84
2022-08-26T05:26:42.496Z,97786.38
2022-08-26T05:29:11.924Z,97788.13
2022-08-26T05:31:38.966Z,97790.41
2022-08-26T05:34:06.129Z,97785.16
2022-08-26T05:36:35.404Z,97789.56
2022-08-26T05:39:04.273Z,97800.09
2022-08-26T05:41:36.262Z,97793.47
2022-08-26T05:44:06.124Z,97796.13
2022-08-26T05:46:34.478Z,97787.66
2022-08-26T05:49:01.794Z,97798.25
2022-08-26T05:51:30.479Z,97800.47
2022-08-26T05:53:58.302Z,97794.81
2022-08-26T05:56:26.303Z,97793.28
2022-08-26T05:58:53.825Z,97796.06
2022-08-26T06:01:26.165Z,97798.25
2022-08-26T06:03:56.646Z,97795.75
2022-08-26T06:06:35.927Z,97796.94
2022-08-26T06:09:05.047Z,97794.34
2022-08-26T06:11:32.710Z,97801.13
2022-08-26T06:14:03.788Z,97792.44
2022-08-26T06:16:36.650Z,97790.56
2022-08-26T06:19:10.586Z,97795.63
2022-08-26T06:21:40.269Z,97789.06
2022-08-26T06:24:28.801Z,97798.00
2022-08-26T06:27:02.485Z,97791.37
2022-08-26T06:29:31.850Z,97791.22
2022-08-26T06:31:58.933Z,97792.72
2022-08-26T06:34:30.253Z,97784.97
2022-08-26T06:37:01.313Z,97788.59
2022-08-26T06:39:30.931Z,97786.19
2022-08-26T06:41:59.283Z,97796.72
2022-08-26T06:44:27.328Z,97790.22
2022-08-26T06:46:54.669Z,97795.34
2022-08-26T06:49:26.689Z,97795.41
2022-08-26T06:51:56.616Z,97793.81
2022-08-26T06:54:23.634Z,97787.81
2022-08-26T06:56:50.566Z,97796.09
2022-08-26T06:59:17.870Z,97794.94
2022-08-26T07:01:45.104Z,97793.97
2022-08-26T07:04:15.474Z,97793.84
2022-08-26T07:06:47.260Z,97787.41
2022-08-26T07:09:14.271Z,97782.47
2022-08-26T07:11:41.435Z,97789.47
2022-08-26T07:14:09.216Z,97787.78
2022-08-26T07:16:36.281Z,97785.06
2022-08-26T07:19:10.777Z,97791.91
2022-08-26T07:21:40.498Z,97793.75
2022-08-26T07:24:08.429Z,97795.34
2022-08-26T07:26:38.555Z,97791.59
2022-08-26T07:29:06.987Z,97790.44
2022-08-26T07:31:39.673Z,97792.66
2022-08-26T07:34:10.771Z,97783.13
2022-08-26T07:36:37.960Z,97791.47
2022-08-26T07:39:05.936Z,97784.13
2022-08-26T07:41:33.407Z,97785.34
2022-08-26T07:44:01.063Z,97786.38
2022-08-26T07:46:30.159Z,97785.81
2022-08-26T07:48:58.737Z,97777.63
2022-08-26T07:51:27.054Z,97792.81
2022-08-26T07:53:55.042Z,97797.84
2022-08-26T07:56:23.467Z,97784.09
2022-08-26T07:58:54.214Z,97784.97
2022-08-26T08:01:23.891Z,97783.91
2022-08-26T08:03:51.999Z,97790.19
2022-08-26T08:06:27.177Z,97787.47
2022-08-26T08:08:55.419Z,97782.50
2022-08-26T08:11:23.296Z,97793.47
2022-08-26T08:13:55.983Z,97778.59
2022-08-26T08:16:24.881Z,97785.31
2022-08-26T08:18:53.723Z,97779.72
2022-08-26T08:21:21.643Z,97782.87
2022-08-26T08:23:49.390Z,97788.31
2022-08-26T08:26:16.896Z,97776.84
2022-08-26T08:28:44.059Z,97784.47
2022-08-26T08:31:21.597Z,97778.13
2022-08-26T08:34:00.355Z,97777.78
2022-08-26T08:36:27.500Z,97775.72
2022-08-26T08:39:02.985Z,97774.56
2022-08-26T08:41:53.152Z,97777.50
2022-08-26T08:44:22.881Z,97770.47
2022-08-26T08:46:54.985Z,97763.13
2022-08-26T08:49:23.044Z,97764.22
2022-08-26T08:51:57.252Z,97762.25
2022-08-26T08:54:26.583Z,97764.25
2022-08-26T08:57:02.466Z,97768.63
2022-08-26T08:59:35.250Z,97762.16
2022-08-26T09:02:30.368Z,97762.63
2022-08-26T09:05:22.722Z,97755.28
2022-08-26T09:07:58.566Z,97754.94
2022-08-26T09:10:44.226Z,97761.22
2022-08-26T09:13:16.959Z,97759.00
2022-08-26T09:15:59.217Z,97758.19
2022-08-26T09:18:54.329Z,97759.19
2022-08-26T09:21:23.731Z,97754.47
2022-08-26T09:23:53.476Z,97751.19
2022-08-26T09:26:45.290Z,97750.53
2022-08-26T09:29:41.873Z,97749.47
2022-08-26T09:32:22.223Z,97755.47
2022-08-26T09:35:01.028Z,97751.44
2022-08-26T09:40:27.513Z,97753.13
2022-08-26T09:43:13.958Z,97753.06
2022-08-26T09:45:50.262Z,97753.28
2022-08-26T09:48:45.450Z,97748.88
2022-08-26T09:51:23.944Z,97742.97
2022-08-26T09:53:52.412Z,97740.91
2022-08-26T09:56:32.815Z,97743.75
2022-08-26T09:59:01.181Z,97734.16
2022-08-26T10:01:40.379Z,97734.91
2022-08-26T10:04:20.143Z,97728.06
2022-08-26T10:07:05.362Z,97717.34
2022-08-26T10:09:39.772Z,97721.00
2022-08-26T10:12:18.059Z,97723.88
2022-08-26T10:14:49.724Z,97717.47
2022-08-26T10:17:30.671Z,97710.88
2022-08-26T10:20:05.972Z,97716.78
2022-08-26T10:23:03.629Z,97706.97
2022-08-26T10:25:37.886Z,97724.41
2022-08-26T10:28:20.194Z,97722.09
2022-08-26T10:31:01.110Z,97716.47
2022-08-26T10:33:28.150Z,97712.59
2022-08-26T10:36:04.395Z,97706.13
2022-08-26T10:38:39.262Z,97714.59
2022-08-26T10:41:18.853Z,97707.91
2022-08-26T10:43:51.955Z,97706.13
2022-08-26T10:46:27.287Z,97696.34
2022-08-26T10:48:59.820Z,97701.94
2022-08-26T10:51:35.796Z,97702.72
2022-08-26T10:54:09.436Z,97691.09
2022-08-26T10:57:18.511Z,97695.97
2022-08-26T11:00:27.587Z,97700.19
2022-08-26T11:03:04.241Z,97695.47
2022-08-26T11:05:31.282Z,97688.97
2022-08-26T11:08:19.926Z,97690.44
2022-08-26T11:10:59.276Z,97686.13
2022-08-26T11:13:57.740Z,97684.84
2022-08-26T11:16:43.824Z,97689.72
2022-08-26T11:19:13.800Z,97683.37
2022-08-26T11:22:06.263Z,97682.34
2022-08-26T11:25:02.790Z,97688.41
2022-08-26T11:27:35.886Z,97673.72
2022-08-26T11:30:10.890Z,97675.97
2022-08-26T11:32:38.300Z,97679.66
2022-08-26T11:35:11.402Z,97682.53
2022-08-26T11:37:41.450Z,97680.16
2022-08-26T11:40:25.956Z,97668.59
2022-08-26T11:42:58.215Z,97666.59
2022-08-26T11:45:44.457Z,97677.97
2022-08-26T11:48:19.458Z,97673.06
2022-08-26T11:51:11.547Z,97659.22
2022-08-26T11:53:42.865Z,97657.00
2022-08-26T11:56:13.069Z,97660.37
2022-08-26T11:58:44.440Z,97656.44
2022-08-26T12:01:14.019Z,97644.28
2022-08-26T12:03:51.489Z,97649.69
2022-08-26T12:06:31.575Z,97646.06
2022-08-26T12:09:00.878Z,97644.88
2022-08-26T12:11:31.240Z,97643.75
2022-08-26T12:14:01.853Z,97639.16
2022-08-26T12:16:33.395Z,97634.06
2022-08-26T12:19:00.502Z,97633.53
2022-08-26T12:21:34.566Z,97632.25
2022-08-26T12:24:02.330Z,97635.03
2022-08-26T12:26:32.874Z,97625.84
2022-08-26T12:29:09.409Z,97624.31
2022-08-26T12:31:48.299Z,97617.06
2022-08-26T12:34:18.187Z,97614.44
2022-08-26T12:39:31.051Z,97611.34
2022-08-26T12:42:01.766Z,97601.63
2022-08-26T12:44:37.231Z,97603.59
2022-08-26T12:47:08.645Z,97611.09
2022-08-26T12:49:39.789Z,97603.97
2022-08-26T12:52:08.344Z,97602.41
2022-08-26T12:54:56.868Z,97601.00
2022-08-26T12:57:29.878Z,97596.41
2022-08-26T13:00:33.583Z,97593.81
2022-08-26T13:03:01.954Z,97595.47
2022-08-26T13:05:37.924Z,97588.12
2022-08-26T13:08:15.271Z,97591.28
2022-08-26T13:10:45.187Z,97594.16
2022-08-26T13:13:12.978Z,97577.78
2022-08-26T13:15:40.300Z,97582.78
2022-08-26T13:18:07.818Z,97576.94
2022-08-26T13:20:34.931Z,97577.22
2022-08-26T13:23:03.289Z,97562.19
2022-08-26T13:25:30.261Z,97559.69
2022-08-26T13:27:57.235Z,97549.94
2022-08-26T13:30:24.188Z,97555.13
2022-08-26T13:32:56.442Z,97558.78
2022-08-26T13:35:23.493Z,97554.69
2022-08-26T13:37:50.423Z,97557.78
2022-08-26T13:40:17.396Z,97553.78
2022-08-26T13:42:50.002Z,97549.06
2022-08-26T13:45:17.111Z,97546.28
2022-08-26T13:47:44.786Z,97536.44
2022-08-26T13:50:11.704Z,97548.41
2022-08-26T13:52:39.018Z,97544.41
2022-08-26T13:55:07.324Z,97543.62
2022-08-26T13:57:34.273Z,97543.44
2022-08-26T14:00:01.231Z,97539.94
2022-08-26T14:02:28.465Z,97528.31
2022-08-26T14:04:56.117Z,97530.34
2022-08-26T14:07:23.884Z,97531.47
2022-08-26T14:09:50.862Z,97543.34
2022-08-26T14:12:18.417Z,97538.03
2022-08-26T14:14:45.708Z,97543.72
2022-08-26T14:17:20.873Z,97528.34
2022-08-26T14:19:49.566Z,97530.72
2022-08-26T14:22:18.295Z,97528.31
2022-08-26T14:24:45.681Z,97539.06
2022-08-26T14:27:13.225Z,97528.56
2022-08-26T14:29:40.581Z,97522.53
2022-08-26T14:32:13.630Z,97525.69
2022-08-26T14:34:41.255Z,97524.91
2022-08-26T14:37:09.897Z,97521.59
2022-08-26T14:39:39.473Z,97525.38
2022-08-26T14:42:06.784Z,97527.62
2022-08-26T14:44:34.300Z,97521.28
2022-08-26T14:47:03.975Z,97527.22
2022-08-26T14:49:31.870Z,97528.22
2022-08-26T14:51:59.054Z,97523.00
2022-08-26T14:54:26.460Z,97520.28
2022-08-26T14:56:56.558Z,97521.28
2022-08-26T14:59:28.010Z,97521.03
2022-08-26T15:01:55.879Z,97529.03
2022-08-26T15:04:24.004Z,97530.13
2022-08-26T15:06:52.174Z,97521.12
2022-08-26T15:09:19.426Z,97518.97
2022-08-26T15:11:47.822Z,97523.41
2022-08-26T15:14:19.244Z,97528.22
2022-08-26T15:16:48.345Z,97521.19
2022-08-26T15:19:16.145Z,97525.88
2022-08-26T15:21:43.593Z,97528.00
2022-08-26T15:24:10.616Z,97528.66
2022-08-26T15:26:37.530Z,97512.09
2022-08-26T15:29:05.377Z,97522.72
2022-08-26T15:31:33.257Z,97521.25
2022-08-26T15:34:03.760Z,97519.56
2022-08-26T15:36:31.797Z,97515.50
2022-08-26T15:39:00.563Z,97522.00
2022-08-26T15:41:28.162Z,97524.66
2022-08-26T15:43:55.133Z,97528.31
2022-08-26T15:46:22.178Z,97520.03
2022-08-26T15:48:49.284Z,97519.94
2022-08-26T15:51:28.179Z,97515.56
2022-08-26T15:53:56.613Z,97510.53
2022-08-26T15:56:29.109Z,97508.03
2022-08-26T15:58:56.437Z,97513.06
2022-08-26T16:01:27.209Z,97505.72
2022-08-26T16:03:55.262Z,97509.41
2022-08-26T16:06:27.555Z,97500.75
2022-08-26T16:08:55.636Z,97503.44
2022-08-26T16:11:23.103Z,97498.66
2022-08-26T16:13:50.310Z,97497.59
2022-08-26T16:16:17.286Z,97502.31
2022-08-26T16:18:44.445Z,97494.72
2022-08-26T16:21:23.426Z,97495.38
2022-08-26T16:23:51.031Z,97484.56
2022-08-26T16:26:22.200Z,97489.50
2022-08-26T16:28:49.111Z,97481.81
2022-08-26T16:31:16.499Z,97487.16
2022-08-26T16:33:43.987Z,97478.03
2022-08-26T16:36:11.377Z,97479.94
2022-08-26T16:38:39.404Z,97483.34
2022-08-26T16:41:06.870Z,97482.41
2022-08-26T16:43:34.356Z,97476.50
2022-08-26T16:46:01.493Z,97473.09
2022-08-26T16:48:28.495Z,97477.16
2022-08-26T16:50:55.776Z,97479.72
2022-08-26T16:53:23.638Z,97476.31
2022-08-26T16:55:51.483Z,97487.47
2022-08-26T16:58:19.802Z,97486.16
2022-08-26T17:00:48.106Z,97491.78
2022-08-26T17:03:16.085Z,97486.03
2022-08-26T17:05:42.998Z,97483.75
2022-08-26T17:08:10.250Z,97485.37
2022-08-26T17:10:37.911Z,97489.47
2022-08-26T17:13:04.964Z,97481.69
2022-08-26T17:15:32.134Z,97482.06
2022-08-26T17:17:59.246Z,97494.63
2022-08-26T17:20:26.868Z,97487.47
2022-08-26T17:22:55.121Z,97493.50
2022-08-26T17:25:32.255Z,97495.16
2022-08-26T17:27:59.632Z,97481.19
2022-08-26T17:30:27.044Z,97491.72
2022-08-26T17:32:56.747Z,97484.63
2022-08-26T17:35:24.363Z,97493.81
2022-08-26T17:37:51.748Z,97500.19
2022-08-26T17:40:22.090Z,97499.22
2022-08-26T17:42:49.300Z,97501.97
2022-08-26T17:45:16.595Z,97514.91
2022-08-26T17:47:43.632Z,97507.22
2022-08-26T17:50:14.716Z,97502.72
2022-08-26T17:52:42.364Z,97511.28
2022-08-26T17:55:10.969Z,97501.31
2022-08-26T17:57:40.807Z,97499.03
2022-08-26T18:00:14.306Z,97505.50
2022-08-26T18:02:42.102Z,97501.91
2022-08-26T18:05:12.779Z,97499.88
2022-08-26T18:07:43.577Z,97505.09
2022-08-26T18:10:13.920Z,97513.34
2022-08-26T18:12:41.802Z,97505.12
2022-08-26T18:15:10.760Z,97503.47
2022-08-26T18:17:39.399Z,97503.13
2022-08-26T18:20:08.918Z,97497.84
2022-08-26T18:22:35.894Z,97503.31
2022-08-26T18:25:05.467Z,97500.03
2022-08-26T18:27:32.949Z,97504.97
2022-08-26T18:30:00.233Z,97506.50
2022-08-26T18:32:27.286Z,97507.81
2022-08-26T18:34:54.277Z,97500.69
2022-08-26T18:37:21.317Z,97501.25
2022-08-26T18:39:48.817Z,97504.03
2022-08-26T18:42:15.811Z,97504.44
2022-08-26T18:44:42.739Z,97503.63
2022-08-26T18:47:09.717Z,97515.69
2022-08-26T18:49:36.707Z,97517.00
2022-08-26T18:52:04.466Z,97514.59
2022-08-26T18:54:31.373Z,97522.09
2022-08-26T18:56:58.662Z,97520.25
2022-08-26T18:59:29.582Z,97524.09
2022-08-26T19:01:57.657Z,97523.84
2022-08-26T19:04:24.785Z,97512.84
2022-08-26T19:06:53.023Z,97519.91
2022-08-26T19:09:20.852Z,97524.06
2022-08-26T19:11:49.593Z,97527.25
2022-08-26T19:14:17.002Z,97528.69
2022-08-26T19:16:46.472Z,97527.00
2022-08-26T19:19:13.989Z,97512.91
2022-08-26T19:21:41.307Z,97513.06
2022-08-26T19:24:15.482Z,97521.28
2022-08-26T19:26:43.960Z,97519.00
2022-08-26T19:29:11.349Z,97517.16
2022-08-26T19:31:38.309Z,97515.31
2022-08-26T19:34:05.539Z,97505.94
2022-08-26T19:36:32.794Z,97523.56
2022-08-26T19:39:00.408Z,97518.59
2022-08-26T19:41:34.170Z,97523.13
2022-08-26T19:44:07.555Z,97519.59
2022-08-26T19:46:34.751Z,97525.59
2022-08-26T19:49:01.736Z,97527.97
2022-08-26T19:51:31.703Z,97530.47
2022-08-26T19:54:00.701Z,97537.00
2022-08-26T19:56:28.230Z,97531.78
2022-08-26T19:58:56.183Z,97538.91
2022-08-26T20:01:23.407Z,97539.06
2022-08-26T20:03:50.774Z,97542.53
2022-08-26T20:06:18.570Z,97545.06
2022-08-26T20:08:46.207Z,97541.72
2022-08-26T20:11:16.295Z,97543.97
2022-08-26T20:13:44.404Z,97535.31
2022-08-26T20:16:12.302Z,97539.31
2022-08-26T20:19:01.856Z,97543.19
2022-08-26T20:21:33.296Z,97543.25
2022-08-26T20:24:08.468Z,97543.56
2022-08-26T20:26:37.652Z,97548.16
2022-08-26T20:29:05.664Z,97547.28
2022-08-26T20:31:32.845Z,97546.25
2022-08-26T20:33:59.837Z,97549.13
2022-08-26T20:36:28.202Z,97557.66
2022-08-26T20:38:55.902Z,97561.00
2022-08-26T20:41:25.535Z,97564.69
2022-08-26T20:43:55.805Z,97563.41
2022-08-26T20:46:25.055Z,97561.37
2022-08-26T20:48:53.351Z,97560.13
2022-08-26T20:51:20.524Z,97559.53
2022-08-26T20:53:47.458Z,97563.03
2022-08-26T20:56:15.794Z,97562.34
2022-08-26T20:58:42.812Z,97567.88
2022-08-26T21:01:18.091Z,97572.38
2022-08-26T21:03:45.610Z,97567.06
2022-08-26T21:06:12.677Z,97559.97
2022-08-26T21:08:42.533Z,97555.88
2022-08-26T21:11:10.276Z,97563.50
2022-08-26T21:13:48.590Z,97564.53
2022-08-26T21:16:26.135Z,97556.78
2022-08-26T21:18:53.114Z,97561.37
2022-08-26T21:21:25.138Z,97563.81
2022-08-26T21:23:52.459Z,97562.84
2022-08-26T21:26:19.548Z,97556.91
2022-08-26T21:28:47.334Z,97561.97
2022-08-26T21:31:16.820Z,97559.38
2022-08-26T21:33:43.808Z,97560.16
2022-08-26T21:36:11.723Z,97563.47
2022-08-26T21:38:39.584Z,97560.19
2022-08-26T21:41:13.359Z,97565.88
2022-08-26T21:43:41.885Z,97557.28
2022-08-26T21:46:14.111Z,97569.72
2022-08-26T21:48:45.683Z,97564.25
2022-08-26T21:51:16.743Z,97568.25
2022-08-26T21:53:43.760Z,97566.50
2022-08-26T21:56:13.162Z,97564.19
2022-08-26T21:58:40.178Z,97559.12
2022-08-26T22:01:12.969Z,97559.19
2022-08-26T22:03:47.092Z,97562.59
2022-08-26T22:06:18.791Z,97561.63
2022-08-26T22:08:45.694Z,97553.84
2022-08-26T22:11:13.440Z,97556.28
2022-08-26T22:13:41.477Z,97557.09
2022-08-26T22:16:09.763Z,97553.44
2022-08-26T22:18:37.835Z,97553.72
2022-08-26T22:21:09.116Z,97548.41
2022-08-26T22:23:37.472Z,97549.00
2022-08-26T22:26:06.291Z,97546.44
2022-08-26T22:28:33.370Z,97553.28
2022-08-26T22:31:00.710Z,97550.00
2022-08-26T22:33:28.151Z,97545.41
2022-08-26T22:35:55.818Z,97550.62
2022-08-26T22:38:24.100Z,97547.06
2022-08-26T22:40:57.599Z,97547.75
2022-08-26T22:43:25.694Z,97543.53
2022-08-26T22:45:53.503Z,97548.41
2022-08-26T22:48:22.488Z,97550.34
2022-08-26T22:50:50.607Z,97540.59
2022-08-26T22:53:18.250Z,97539.72
2022-08-26T22:55:45.834Z,97533.25
2022-08-26T22:58:15.012Z,97539.56
2022-08-26T23:00:43.597Z,97533.34
2022-08-26T23:03:11.055Z,97534.38
2022-08-26T23:05:39.400Z,97525.97
2022-08-26T23:08:07.135Z,97526.72
2022-08-26T23:10:34.370Z,97535.44
2022-08-26T23:13:01.931Z,97526.16
2022-08-26T23:15:28.853Z,97522.78
2022-08-26T23:17:58.630Z,97516.78
2022-08-26T23:20:27.038Z,97520.12
2022-08-26T23:22:54.806Z,97516.53
2022-08-26T23:25:22.157Z,97510.59
2022-08-26T23:27:51.598Z,97522.13
2022-08-26T23:30:21.863Z,97510.56
2022-08-26T23:32:48.825Z,97512.38
2022-08-26T23:35:16.309Z,97516.84
2022-08-26T23:37:46.074Z,97511.47
2022-08-26T23:40:19.194Z,97508.66
2022-08-26T23:42:46.133Z,97513.50
2022-08-26T23:45:14.849Z,97512.50
2022-08-26T23:47:41.843Z,97512.06
2022-08-26T23:50:09.209Z,97504.25
2022-08-26T23:52:54.765Z,97504.34
2022-08-26T23:55:22.743Z,97514.31
2022-08-26T23:57:50.074Z,97518.03
